createdAt,value
2019-02-28T00:01:55.579Z,57.40
2019-02-28T00:04:26.034Z,57.30
2019-02-28T00:06:55.536Z,57.40
2019-02-28T00:09:25.816Z,57.50
2019-02-28T00:11:55.979Z,57.60
2019-02-28T00:14:33.980Z,57.50
2019-02-28T00:17:06.167Z,57.30
2019-02-28T00:19:34.980Z,57.40
2019-02-28T00:22:04.873Z,57.40
2019-02-28T00:24:34.288Z,57.60
2019-02-28T00:27:03.676Z,57.50
2019-02-28T00:29:36.096Z,57.40
2019-02-28T00:32:07.688Z,57.40
2019-02-28T00:34:39.187Z,57.30
2019-02-28T00:37:12.944Z,57.30
2019-02-28T00:39:42.392Z,57.20
2019-02-28T00:42:11.838Z,57.20
2019-02-28T00:44:41.234Z,57.20
2019-02-28T00:47:10.668Z,57.30
2019-02-28T00:49:40.079Z,57.40
2019-02-28T00:52:09.406Z,57.50
2019-02-28T00:54:42.976Z,57.40
2019-02-28T00:57:10.011Z,57.30
2019-02-28T00:59:39.503Z,57.30
2019-02-28T01:02:09.007Z,57.40
2019-02-28T01:04:38.556Z,57.40
2019-02-28T01:07:07.935Z,57.40
2019-02-28T01:09:37.409Z,57.40
2019-02-28T01:12:06.751Z,57.50
2019-02-28T01:14:36.666Z,57.50
2019-02-28T01:17:06.153Z,57.50
2019-02-28T01:19:35.546Z,57.40
2019-02-28T01:22:04.761Z,57.30
2019-02-28T01:24:34.785Z,57.30
2019-02-28T01:27:04.715Z,57.40
2019-02-28T01:29:35.705Z,57.40
2019-02-28T01:32:05.138Z,57.50
2019-02-28T01:34:34.519Z,57.50
2019-02-28T01:37:03.928Z,57.60
2019-02-28T01:39:33.335Z,57.50
2019-02-28T01:42:02.636Z,57.40
2019-02-28T01:44:35.617Z,57.30
2019-02-28T01:47:02.965Z,57.20
2019-02-28T01:49:32.365Z,57.20
2019-02-28T01:52:01.702Z,57.10
2019-02-28T01:54:31.039Z,57.00
2019-02-28T01:57:03.160Z,56.80
2019-02-28T01:59:33.701Z,56.80
2019-02-28T02:02:06.675Z,56.80
2019-02-28T02:04:34.036Z,56.80
2019-02-28T02:07:03.385Z,56.70
2019-02-28T02:09:32.834Z,56.70
2019-02-28T02:12:02.087Z,56.70
2019-02-28T02:14:31.422Z,57.30
2019-02-28T02:17:01.043Z,56.70
2019-02-28T02:19:31.194Z,56.70
2019-02-28T02:22:00.426Z,56.60
2019-02-28T02:24:29.818Z,56.60
2019-02-28T02:26:59.558Z,56.70
2019-02-28T02:29:28.870Z,56.70
2019-02-28T02:32:00.976Z,56.70
2019-02-28T02:34:29.618Z,56.70
2019-02-28T02:36:59.011Z,56.60
2019-02-28T02:39:28.356Z,56.60
2019-02-28T02:41:57.715Z,56.60
2019-02-28T02:44:30.496Z,56.50
2019-02-28T02:46:58.076Z,56.40
2019-02-28T02:49:27.567Z,56.40
2019-02-28T02:51:57.039Z,56.30
2019-02-28T02:54:26.399Z,56.40
2019-02-28T02:56:55.862Z,56.40
2019-02-28T02:59:25.317Z,56.30
2019-02-28T03:01:56.199Z,56.20
2019-02-28T03:04:25.942Z,56.20
2019-02-28T03:06:55.372Z,56.10
2019-02-28T03:09:24.794Z,56.10
2019-02-28T03:11:57.615Z,56.10
2019-02-28T03:14:25.308Z,55.90
2019-02-28T03:16:54.686Z,55.90
2019-02-28T03:19:23.931Z,55.80
2019-02-28T03:21:53.581Z,55.80
2019-02-28T03:24:25.303Z,55.50
2019-02-28T03:26:54.700Z,55.20
2019-02-28T03:29:24.088Z,55.10
2019-02-28T03:31:58.963Z,54.80
2019-02-28T03:34:25.748Z,54.60
2019-02-28T03:36:57.316Z,54.30
2019-02-28T03:39:26.269Z,54.00
2019-02-28T03:41:55.836Z,54.00
2019-02-28T03:44:25.198Z,53.60
2019-02-28T03:46:54.636Z,53.50
2019-02-28T03:49:24.055Z,53.30
2019-02-28T03:51:53.428Z,53.00
2019-02-28T03:54:28.864Z,52.40
2019-02-28T03:56:56.158Z,52.20
2019-02-28T03:59:26.600Z,51.80
2019-02-28T04:01:57.296Z,51.40
2019-02-28T04:04:26.638Z,50.20
2019-02-28T04:06:56.076Z,49.80
2019-02-28T04:09:25.501Z,49.60
2019-02-28T04:11:54.812Z,49.30
2019-02-28T04:14:24.121Z,48.40
2019-02-28T04:16:54.543Z,48.40
2019-02-28T04:19:24.047Z,48.20
2019-02-28T04:21:54.914Z,47.90
2019-02-28T04:24:24.242Z,47.60
2019-02-28T04:26:53.546Z,47.60
2019-02-28T04:29:30.120Z,47.40
2019-02-28T04:31:53.996Z,47.10
2019-02-28T04:34:23.356Z,47.00
2019-02-28T04:36:52.818Z,46.90
2019-02-28T04:39:23.528Z,46.60
2019-02-28T04:41:53.056Z,46.60
2019-02-28T04:44:22.478Z,46.20
2019-02-28T04:46:51.882Z,46.20
2019-02-28T04:49:22.747Z,46.20
2019-02-28T04:51:52.241Z,45.90
2019-02-28T04:54:24.630Z,45.90
2019-02-28T04:56:55.530Z,45.70
2019-02-28T04:59:24.881Z,45.60
2019-02-28T05:01:54.194Z,45.40
2019-02-28T05:04:26.542Z,45.30
2019-02-28T05:06:56.021Z,45.20
2019-02-28T05:09:25.383Z,45.00
2019-02-28T05:11:54.797Z,44.80
2019-02-28T05:14:24.435Z,44.70
2019-02-28T05:16:54.061Z,44.70
2019-02-28T05:19:23.456Z,44.50
2019-02-28T05:21:53.588Z,44.40
2019-02-28T05:24:23.699Z,44.30
2019-02-28T05:26:53.083Z,44.20
2019-02-28T05:29:22.494Z,44.10
2019-02-28T05:31:51.987Z,44.00
2019-02-28T05:34:21.384Z,43.70
2019-02-28T05:36:50.787Z,43.60
2019-02-28T05:39:20.222Z,43.60
2019-02-28T05:41:50.152Z,43.70
2019-02-28T05:44:21.301Z,43.50
2019-02-28T05:46:50.451Z,43.60
2019-02-28T05:49:19.827Z,43.60
2019-02-28T05:51:49.127Z,43.30
2019-02-28T05:54:18.494Z,43.30
2019-02-28T05:56:47.897Z,43.30
2019-02-28T05:59:17.269Z,43.30
2019-02-28T06:01:51.116Z,43.40
2019-02-28T06:04:21.230Z,43.40
2019-02-28T06:06:51.446Z,43.40
2019-02-28T06:09:21.718Z,43.30
2019-02-28T06:11:51.074Z,43.10
2019-02-28T06:14:20.488Z,43.20
2019-02-28T06:16:49.926Z,43.20
2019-02-28T06:19:20.353Z,43.30
2019-02-28T06:21:49.772Z,43.30
2019-02-28T06:24:19.283Z,43.20
2019-02-28T06:26:48.604Z,43.30
2019-02-28T06:29:20.168Z,43.30
2019-02-28T06:31:57.208Z,44.00
2019-02-28T06:34:29.027Z,43.40
2019-02-28T06:37:00.413Z,43.50
2019-02-28T06:39:29.748Z,43.60
2019-02-28T06:41:59.045Z,43.50
2019-02-28T06:44:28.392Z,43.50
2019-02-28T06:46:57.809Z,43.50
2019-02-28T06:49:27.183Z,43.50
2019-02-28T06:51:56.552Z,43.60
2019-02-28T06:54:26.194Z,43.60
2019-02-28T06:56:55.644Z,43.80
2019-02-28T06:59:25.394Z,43.70
2019-02-28T07:01:57.492Z,43.70
2019-02-28T07:04:25.896Z,43.60
2019-02-28T07:06:55.211Z,43.70
2019-02-28T07:09:27.615Z,43.70
2019-02-28T07:11:57.056Z,43.70
2019-02-28T07:14:26.491Z,43.70
2019-02-28T07:16:56.071Z,43.80
2019-02-28T07:19:26.262Z,43.70
2019-02-28T07:21:56.425Z,43.80
2019-02-28T07:24:25.966Z,43.90
2019-02-28T07:26:55.435Z,43.90
2019-02-28T07:29:24.839Z,43.90
2019-02-28T07:32:00.031Z,44.00
2019-02-28T07:34:25.415Z,44.10
2019-02-28T07:36:54.793Z,44.90
2019-02-28T07:39:24.195Z,44.20
2019-02-28T07:41:53.822Z,44.30
2019-02-28T07:44:23.289Z,44.50
2019-02-28T07:46:52.761Z,44.60
2019-02-28T07:49:22.391Z,44.70
2019-02-28T07:51:51.669Z,44.90
2019-02-28T07:54:21.033Z,45.10
2019-02-28T07:56:50.475Z,45.30
2019-02-28T07:59:19.851Z,45.50
2019-02-28T08:01:50.825Z,45.60
2019-02-28T08:04:20.427Z,45.70
2019-02-28T08:06:49.884Z,45.90
2019-02-28T08:09:31.871Z,46.00
2019-02-28T08:12:01.365Z,46.00
2019-02-28T08:14:30.908Z,46.10
2019-02-28T08:17:00.522Z,46.10
2019-02-28T08:19:29.904Z,46.20
2019-02-28T08:21:59.620Z,46.20
2019-02-28T08:24:29.132Z,46.20
2019-02-28T08:26:58.687Z,46.20
2019-02-28T08:29:28.191Z,46.10
2019-02-28T08:31:57.632Z,46.20
2019-02-28T08:34:27.312Z,46.80
2019-02-28T08:36:57.804Z,46.20
2019-02-28T08:39:27.377Z,46.10
2019-02-28T08:42:02.971Z,46.20
2019-02-28T08:44:28.064Z,46.30
2019-02-28T08:46:57.781Z,46.30
2019-02-28T08:49:27.318Z,46.30
2019-02-28T08:51:56.946Z,46.50
2019-02-28T08:54:27.544Z,46.40
2019-02-28T08:56:57.180Z,46.40
2019-02-28T08:59:26.764Z,46.40
2019-02-28T09:01:56.237Z,46.40
2019-02-28T09:04:25.850Z,46.50
2019-02-28T09:06:55.437Z,46.60
2019-02-28T09:09:24.875Z,46.50
2019-02-28T09:11:58.184Z,46.60
2019-02-28T09:14:26.661Z,46.70
2019-02-28T09:16:56.001Z,46.70
2019-02-28T09:19:25.689Z,46.70
2019-02-28T09:21:55.172Z,46.70
2019-02-28T09:24:26.022Z,46.70
2019-02-28T09:26:55.619Z,46.70
2019-02-28T09:29:25.007Z,46.60
2019-02-28T09:31:56.127Z,46.70
2019-02-28T09:34:25.448Z,46.60
2019-02-28T09:36:56.618Z,46.40
2019-02-28T09:39:27.574Z,46.40
2019-02-28T09:41:57.020Z,46.50
2019-02-28T09:44:26.838Z,46.50
2019-02-28T09:46:57.143Z,46.50
2019-02-28T09:49:26.642Z,46.60
2019-02-28T09:51:56.048Z,46.40
2019-02-28T09:54:25.569Z,46.30
2019-02-28T09:56:55.109Z,46.40
2019-02-28T09:59:24.654Z,46.40
2019-02-28T10:02:01.125Z,46.40
2019-02-28T10:04:27.376Z,46.50
2019-02-28T10:06:56.937Z,46.50
2019-02-28T10:09:26.404Z,46.30
2019-02-28T10:11:55.858Z,46.10
2019-02-28T10:14:25.736Z,46.10
2019-02-28T10:16:56.443Z,46.10
2019-02-28T10:19:26.160Z,46.10
2019-02-28T10:21:55.658Z,46.00
2019-02-28T10:24:25.072Z,46.10
2019-02-28T10:26:54.403Z,46.30
2019-02-28T10:29:23.834Z,47.10
2019-02-28T10:31:53.362Z,46.50
2019-02-28T10:34:23.501Z,46.40
2019-02-28T10:36:54.014Z,46.50
2019-02-28T10:39:23.683Z,46.50
2019-02-28T10:41:53.160Z,46.50
2019-02-28T10:44:22.719Z,46.50
2019-02-28T10:46:53.852Z,46.50
2019-02-28T10:49:24.139Z,46.60
2019-02-28T10:51:54.477Z,46.40
2019-02-28T10:54:23.874Z,46.50
2019-02-28T10:56:53.507Z,46.50
2019-02-28T10:59:24.390Z,46.50
2019-02-28T11:01:54.267Z,46.60
2019-02-28T11:04:23.739Z,46.70
2019-02-28T11:06:53.229Z,46.30
2019-02-28T11:09:25.335Z,46.20
2019-02-28T11:11:53.999Z,46.20
2019-02-28T11:14:24.419Z,46.20
2019-02-28T11:16:58.839Z,46.20
2019-02-28T11:19:25.244Z,46.00
2019-02-28T11:21:55.029Z,45.80
2019-02-28T11:24:27.043Z,45.60
2019-02-28T11:26:56.272Z,45.40
2019-02-28T11:29:27.820Z,45.60
2019-02-28T11:31:59.000Z,45.50
2019-02-28T11:34:28.481Z,45.60
2019-02-28T11:36:58.012Z,45.60
2019-02-28T11:39:30.524Z,45.70
2019-02-28T11:41:59.452Z,45.40
2019-02-28T11:44:29.192Z,45.20
2019-02-28T11:46:58.770Z,44.90
2019-02-28T11:49:29.523Z,44.80
2019-02-28T11:51:59.265Z,45.20
2019-02-28T11:54:29.379Z,45.20
2019-02-28T11:57:02.527Z,45.00
2019-02-28T11:59:30.688Z,44.40
2019-02-28T12:02:20.291Z,43.80
2019-02-28T12:04:49.562Z,43.20
2019-02-28T12:07:20.155Z,42.70
2019-02-28T12:09:51.427Z,42.40
2019-02-28T12:12:20.820Z,42.20
2019-02-28T12:14:51.412Z,41.10
2019-02-28T12:17:20.993Z,40.40
2019-02-28T12:19:51.590Z,40.40
2019-02-28T12:22:21.416Z,40.20
2019-02-28T12:24:51.457Z,40.10
2019-02-28T12:27:21.151Z,39.80
2019-02-28T12:29:51.390Z,39.80
2019-02-28T12:32:21.350Z,39.70
2019-02-28T12:34:56.231Z,39.30
2019-02-28T12:37:25.998Z,39.50
2019-02-28T12:40:02.743Z,39.40
2019-02-28T12:42:34.650Z,38.80
2019-02-28T12:45:04.997Z,38.10
2019-02-28T12:47:38.672Z,37.10
2019-02-28T12:50:09.975Z,37.10
2019-02-28T12:52:48.994Z,36.80
2019-02-28T12:55:18.505Z,36.20
2019-02-28T12:57:49.365Z,35.80
2019-02-28T13:00:23.392Z,35.80
2019-02-28T13:03:00.001Z,36.00
2019-02-28T13:05:30.064Z,36.30
2019-02-28T13:08:00.082Z,36.80
2019-02-28T13:10:31.133Z,37.30
2019-02-28T13:13:27.460Z,37.90
2019-02-28T13:15:58.130Z,37.60
2019-02-28T13:18:32.221Z,37.70
2019-02-28T13:21:11.713Z,37.70
2019-02-28T13:23:45.209Z,37.50
2019-02-28T13:26:17.950Z,38.00
2019-02-28T13:28:50.854Z,38.50
2019-02-28T13:31:28.519Z,38.80
2019-02-28T13:34:31.931Z,38.80
2019-02-28T13:37:08.462Z,38.60
2019-02-28T13:39:40.514Z,38.60
2019-02-28T13:42:14.000Z,39.10
2019-02-28T13:44:50.592Z,38.70
2019-02-28T13:47:20.579Z,38.60
2019-02-28T13:49:50.745Z,38.90
2019-02-28T13:52:22.702Z,39.20
2019-02-28T13:55:09.722Z,39.70
2019-02-28T13:58:02.608Z,40.00
2019-02-28T14:00:33.323Z,40.60
2019-02-28T14:03:10.996Z,41.00
2019-02-28T14:05:47.968Z,40.80
2019-02-28T14:08:20.477Z,40.60
2019-02-28T14:11:10.259Z,40.50
2019-02-28T14:13:41.410Z,40.60
2019-02-28T14:19:25.254Z,40.50
2019-02-28T14:25:28.898Z,40.80
2019-02-28T14:28:01.718Z,41.20
2019-02-28T14:30:34.255Z,41.30
2019-02-28T14:33:04.291Z,41.40
2019-02-28T14:35:37.613Z,41.40
2019-02-28T14:38:09.711Z,41.60
2019-02-28T14:40:39.883Z,41.60
2019-02-28T14:43:11.460Z,41.80
2019-02-28T14:45:42.845Z,41.80
2019-02-28T14:48:13.539Z,41.70
2019-02-28T14:50:43.566Z,41.90
2019-02-28T14:53:16.995Z,42.10
2019-02-28T14:55:46.735Z,42.10
2019-02-28T14:58:20.347Z,42.50
2019-02-28T15:00:49.978Z,42.70
2019-02-28T15:03:19.450Z,42.90
2019-02-28T15:05:52.297Z,43.00
2019-02-28T15:08:20.710Z,43.10
2019-02-28T15:10:50.739Z,43.30
2019-02-28T15:13:20.588Z,43.40
2019-02-28T15:15:53.236Z,43.60
2019-02-28T15:18:22.867Z,43.50
2019-02-28T15:21:08.606Z,43.70
2019-02-28T15:23:38.160Z,43.90
2019-02-28T15:26:11.648Z,44.10
2019-02-28T15:28:48.618Z,44.20
2019-02-28T15:31:22.481Z,44.20
2019-02-28T15:33:52.832Z,44.50
2019-02-28T15:36:24.355Z,44.80
2019-02-28T15:38:53.450Z,44.90
2019-02-28T15:41:22.826Z,45.10
2019-02-28T15:43:56.218Z,45.30
2019-02-28T15:46:25.820Z,45.50
2019-02-28T15:48:55.249Z,45.70
2019-02-28T15:51:29.459Z,45.70
2019-02-28T15:53:56.487Z,45.90
2019-02-28T15:56:26.530Z,46.00
2019-02-28T15:58:59.903Z,46.10
2019-02-28T16:01:32.198Z,46.20
2019-02-28T16:04:00.949Z,46.40
2019-02-28T16:06:35.099Z,46.50
2019-02-28T16:09:05.611Z,46.70
2019-02-28T16:11:58.312Z,46.80
2019-02-28T16:14:31.430Z,46.90
2019-02-28T16:17:03.584Z,47.00
2019-02-28T16:19:35.719Z,47.20
2019-02-28T16:22:53.030Z,47.30
2019-02-28T16:25:26.281Z,47.40
2019-02-28T16:27:56.557Z,47.50
2019-02-28T16:30:32.099Z,47.70
2019-02-28T16:33:08.629Z,48.00
2019-02-28T16:35:38.096Z,47.80
2019-02-28T16:38:12.621Z,47.90
2019-02-28T16:40:43.467Z,47.90
2019-02-28T16:43:13.196Z,47.80
2019-02-28T16:45:52.524Z,48.00
2019-02-28T16:48:22.070Z,48.10
2019-02-28T16:50:56.953Z,48.20
2019-02-28T16:53:29.690Z,48.20
2019-02-28T16:55:59.184Z,48.40
2019-02-28T16:58:30.298Z,48.70
2019-02-28T17:01:02.283Z,49.10
2019-02-28T17:03:31.786Z,49.10
2019-02-28T17:06:02.247Z,49.30
2019-02-28T17:08:35.878Z,49.50
2019-02-28T17:11:08.957Z,49.60
2019-02-28T17:13:43.465Z,49.80
2019-02-28T17:16:23.103Z,49.80
2019-02-28T17:18:53.560Z,50.00
2019-02-28T17:21:27.377Z,49.90
2019-02-28T17:23:59.740Z,50.00
2019-02-28T17:26:52.478Z,50.20
2019-02-28T17:29:44.133Z,50.40
2019-02-28T17:32:15.406Z,50.40
2019-02-28T17:34:56.008Z,50.80
2019-02-28T17:37:28.414Z,50.70
2019-02-28T17:39:59.230Z,51.20
2019-02-28T17:42:28.785Z,51.10
2019-02-28T17:45:24.865Z,51.10
2019-02-28T17:48:17.595Z,51.10
2019-02-28T17:50:55.617Z,51.30
2019-02-28T17:53:52.458Z,51.30
2019-02-28T17:56:48.712Z,51.40
2019-02-28T17:59:48.789Z,51.30
2019-02-28T18:02:54.258Z,51.30
2019-02-28T18:05:40.839Z,51.30
2019-02-28T18:08:28.163Z,51.50
2019-02-28T18:11:35.112Z,51.60
2019-02-28T18:14:18.373Z,51.70
2019-02-28T18:17:32.627Z,51.70
2019-02-28T18:20:29.804Z,51.60
2019-02-28T18:23:50.972Z,51.60
2019-02-28T18:26:50.201Z,51.60
2019-02-28T18:30:23.107Z,51.50
2019-02-28T18:32:54.719Z,51.50
2019-02-28T18:35:25.354Z,51.50
2019-02-28T18:37:57.408Z,51.50
2019-02-28T18:40:26.776Z,51.50
2019-02-28T18:42:56.216Z,51.50
2019-02-28T18:45:26.113Z,51.50
2019-02-28T18:47:58.679Z,51.50
2019-02-28T18:50:28.220Z,51.50
2019-02-28T18:53:07.926Z,51.60
2019-02-28T18:55:38.415Z,51.50
2019-02-28T18:58:11.006Z,51.50
2019-02-28T19:00:44.420Z,51.60
2019-02-28T19:03:13.752Z,51.40
2019-02-28T19:05:43.252Z,51.40
2019-02-28T19:08:12.750Z,51.40
2019-02-28T19:10:42.350Z,51.40
2019-02-28T19:13:13.461Z,51.40
2019-02-28T19:15:45.073Z,51.60
2019-02-28T19:18:14.137Z,51.60
2019-02-28T19:20:43.709Z,51.70
2019-02-28T19:23:13.178Z,51.80
2019-02-28T19:25:45.132Z,51.70
2019-02-28T19:28:27.812Z,51.80
2019-02-28T19:30:57.250Z,51.80
2019-02-28T19:33:26.755Z,51.70
2019-02-28T19:35:56.339Z,51.80
2019-02-28T19:38:25.937Z,52.00
2019-02-28T19:40:55.371Z,51.90
2019-02-28T19:43:24.880Z,51.90
2019-02-28T19:45:54.979Z,51.90
2019-02-28T19:48:24.341Z,51.90
2019-02-28T19:50:54.873Z,51.90
2019-02-28T19:53:24.327Z,52.60
2019-02-28T19:55:56.713Z,52.00
2019-02-28T19:58:26.324Z,52.10
2019-02-28T20:00:56.034Z,52.20
2019-02-28T20:03:27.600Z,52.20
2019-02-28T20:05:56.991Z,52.20
2019-02-28T20:08:26.456Z,52.20
2019-02-28T20:10:56.050Z,52.20
2019-02-28T20:13:25.777Z,52.20
2019-02-28T20:15:55.668Z,52.30
2019-02-28T20:18:25.273Z,52.40
2019-02-28T20:20:55.404Z,52.40
2019-02-28T20:23:25.126Z,52.50
2019-02-28T20:25:55.432Z,52.50
2019-02-28T20:28:25.345Z,52.50
2019-02-28T20:30:55.135Z,52.50
2019-02-28T20:33:33.841Z,52.50
2019-02-28T20:36:05.535Z,52.50
2019-02-28T20:38:34.938Z,52.50
2019-02-28T20:41:07.443Z,52.50
2019-02-28T20:43:37.018Z,52.50
2019-02-28T20:46:06.644Z,52.50
2019-02-28T20:48:36.115Z,52.50
2019-02-28T20:51:05.872Z,52.50
2019-02-28T20:53:36.244Z,52.50
2019-02-28T20:56:09.320Z,52.50
2019-02-28T20:58:44.411Z,52.70
2019-02-28T21:01:17.070Z,52.80
2019-02-28T21:03:46.470Z,52.80
2019-02-28T21:06:15.982Z,52.70
2019-02-28T21:08:46.326Z,52.70
2019-02-28T21:11:16.374Z,52.90
2019-02-28T21:13:51.960Z,52.80
2019-02-28T21:16:21.464Z,52.80
2019-02-28T21:18:55.478Z,52.80
2019-02-28T21:21:25.028Z,52.80
2019-02-28T21:23:56.199Z,52.90
2019-02-28T21:26:25.849Z,52.90
2019-02-28T21:28:55.273Z,52.80
2019-02-28T21:31:24.889Z,52.70
2019-02-28T21:33:56.346Z,52.80
2019-02-28T21:36:26.079Z,52.70
2019-02-28T21:39:02.322Z,52.90
2019-02-28T21:41:33.688Z,52.80
2019-02-28T21:44:06.339Z,52.90
2019-02-28T21:46:38.293Z,53.00
2019-02-28T21:49:09.013Z,53.00
2019-02-28T21:51:41.503Z,52.90
2019-02-28T21:54:11.250Z,53.10
2019-02-28T21:56:54.824Z,53.00
2019-02-28T21:59:24.220Z,53.00
2019-02-28T22:01:53.797Z,53.00
2019-02-28T22:04:23.209Z,53.10
2019-02-28T22:06:53.817Z,53.10
2019-02-28T22:09:27.861Z,53.10
2019-02-28T22:11:56.991Z,53.20
2019-02-28T22:14:26.577Z,53.20
2019-02-28T22:16:55.897Z,53.20
2019-02-28T22:19:25.353Z,53.20
2019-02-28T22:21:54.745Z,53.20
2019-02-28T22:24:24.149Z,53.20
2019-02-28T22:26:53.503Z,53.20
2019-02-28T22:29:22.979Z,53.30
2019-02-28T22:32:26.499Z,53.20
2019-02-28T22:35:10.991Z,53.40
2019-02-28T22:37:40.487Z,53.50
2019-02-28T22:40:09.961Z,53.50
2019-02-28T22:42:39.346Z,53.60
2019-02-28T22:45:09.785Z,53.60
2019-02-28T22:47:39.345Z,53.60
2019-02-28T22:50:12.076Z,53.60
2019-02-28T22:52:41.832Z,53.60
2019-02-28T22:55:11.363Z,53.70
2019-02-28T22:57:40.752Z,53.70
2019-02-28T23:00:21.340Z,53.70
2019-02-28T23:02:51.001Z,53.70
2019-02-28T23:05:20.804Z,53.70
2019-02-28T23:07:51.472Z,53.70
2019-02-28T23:10:21.240Z,53.70
2019-02-28T23:12:50.605Z,53.80
2019-02-28T23:15:20.007Z,53.80
2019-02-28T23:17:49.500Z,53.90
2019-02-28T23:20:18.968Z,53.80
2019-02-28T23:22:48.690Z,53.90
2019-02-28T23:25:18.311Z,53.70
2019-02-28T23:28:09.776Z,53.70
2019-02-28T23:31:35.111Z,53.70
2019-02-28T23:34:08.942Z,53.70
2019-02-28T23:36:38.306Z,53.70
2019-02-28T23:39:08.564Z,53.70
2019-02-28T23:41:38.033Z,53.60
2019-02-28T23:44:07.507Z,53.70
2019-02-28T23:46:36.984Z,53.70
2019-02-28T23:49:06.450Z,53.70
2019-02-28T23:51:35.798Z,53.70
2019-02-28T23:54:05.187Z,53.70
2019-02-28T23:56:34.635Z,53.70
2019-02-28T23:59:04.070Z,54.30
